TimeCET,TemperatureF,Dew PointF,Humidity,Sea Level PressureIn,VisibilityMPH,Wind Direction,Wind SpeedMPH,Gust SpeedMPH,PrecipitationIn,Events,Conditions,WindDirDegrees,DateUTC
12:45 AM,28.4,21.2,74,30.42,-9999.0,NNW,2.3,-,N/A,,Clear,340,2013-12-12 23:45:00
1:00 AM,29,21,60,30.46,9,NNW,2.2,,,,Partly Cloudy,340,2013-12-13 00:00:00
1:45 AM,30.2,23.0,75,30.39,-9999.0,Calm,Calm,-,N/A,,Clear,0,2013-12-13 00:45:00
2:45 AM,30.2,23.0,75,30.39,-9999.0,Calm,Calm,-,N/A,,Clear,0,2013-12-13 01:45:00
3:45 AM,30.2,23.0,75,30.36,-9999.0,Calm,Calm,-,N/A,,Clear,0,2013-12-13 02:45:00
4:45 AM,30.2,21.2,69,30.36,-9999.0,SW,3.5,-,N/A,,Clear,230,2013-12-13 03:45:00
5:15 AM,26.6,21.2,80,30.36,-9999.0,SW,3.5,-,N/A,,Clear,230,2013-12-13 04:15:00
5:45 AM,26.6,21.2,80,30.36,-9999.0,WSW,2.3,-,N/A,,Clear,240,2013-12-13 04:45:00
6:00 AM,-9999,-9999,N/A,-9999,4.3,Variable,3.5,-,N/A,,Mostly Cloudy,0,2013-12-13 05:00:00
6:15 AM,28.4,23.0,80,30.36,-9999.0,Calm,Calm,-,N/A,,Clear,0,2013-12-13 05:15:00
6:45 AM,26.6,21.2,80,30.36,-9999.0,Calm,Calm,-,N/A,,Clear,0,2013-12-13 05:45:00
7:00 AM,27,22,74,30.42,6,Calm,Calm,,,,Partly Cloudy,,2013-12-13 06:00:00
7:15 AM,26.6,23.0,86,30.36,-9999.0,Calm,Calm,-,N/A,,Clear,0,2013-12-13 06:15:00
7:45 AM,28.4,23.0,80,30.36,-9999.0,Calm,Calm,-,N/A,,Clear,0,2013-12-13 06:45:00
8:15 AM,28.4,23.0,80,30.36,-9999.0,Calm,Calm,-,N/A,,Clear,0,2013-12-13 07:15:00
8:45 AM,30.2,24.8,80,30.36,-9999.0,Calm,Calm,-,N/A,,Clear,0,2013-12-13 07:45:00
9:00 AM,-9999,-9999,N/A,-9999,2.2,Variable,2.3,-,N/A,,Clear,0,2013-12-13 08:00:00
9:15 AM,32.0,24.8,75,30.36,-9999.0,Calm,Calm,-,N/A,,Clear,0,2013-12-13 08:15:00
9:45 AM,33.8,24.8,70,30.36,-9999.0,Calm,Calm,-,N/A,,Clear,0,2013-12-13 08:45:00
10:15 AM,35.6,26.6,70,30.36,-9999.0,Calm,Calm,-,N/A,,Clear,0,2013-12-13 09:15:00
10:45 AM,37.4,26.6,65,30.36,-9999.0,NW,2.3,-,N/A,,Clear,310,2013-12-13 09:45:00
11:15 AM,37.4,28.4,70,30.36,4.3,NW,2.3,-,N/A,,Unknown,310,2013-12-13 10:15:00
11:45 AM,39.2,26.6,61,30.33,3.7,NW,2.3,-,N/A,,Unknown,320,2013-12-13 10:45:00
12:00 PM,-9999,-9999,N/A,-9999,3.1,Variable,2.3,-,N/A,,Mostly Cloudy,0,2013-12-13 11:00:00
12:15 PM,39.2,26.6,61,30.33,3.7,NW,2.3,-,N/A,,Unknown,320,2013-12-13 11:15:00
12:45 PM,39.2,26.6,61,30.33,3.7,WNW,2.3,-,N/A,,Unknown,300,2013-12-13 11:45:00
1:00 PM,40,27,47,30.36,4,WNW,2.2,,,,Partly Cloudy,300,2013-12-13 12:00:00
1:15 PM,41.0,28.4,61,30.33,4.3,Calm,Calm,-,N/A,,Unknown,0,2013-12-13 12:15:00
1:45 PM,41.0,26.6,57,30.30,5.0,NW,2.3,-,N/A,,Unknown,310,2013-12-13 12:45:00
2:15 PM,41.0,28.4,61,30.30,5.0,WSW,3.5,-,N/A,,Unknown,240,2013-12-13 13:15:00
2:45 PM,39.2,28.4,65,30.30,5.0,SW,3.5,-,N/A,,Unknown,220,2013-12-13 13:45:00
3:00 PM,-9999,-9999,N/A,-9999,2.2,Variable,3.5,-,N/A,,Mostly Cloudy,0,2013-12-13 14:00:00
3:15 PM,37.4,30.2,75,30.30,5.0,SW,2.3,-,N/A,,Unknown,220,2013-12-13 14:15:00
3:45 PM,35.6,28.4,75,30.30,4.3,WSW,2.3,-,N/A,,Unknown,250,2013-12-13 14:45:00
4:15 PM,32.0,26.6,80,30.33,3.7,Calm,Calm,-,N/A,,Unknown,0,2013-12-13 15:15:00
4:38 PM,30.2,26.6,86,30.36,3.1,ESE,5.8,-,N/A,,Mist,110,2013-12-13 15:38:00
4:45 PM,30.2,26.6,86,30.33,3.1,ESE,5.8,-,N/A,,Mist,110,2013-12-13 15:45:00
5:15 PM,28.4,26.6,93,30.33,3.1,East,4.6,-,N/A,,Mist,100,2013-12-13 16:15:00
5:45 PM,28.4,26.6,93,30.33,3.1,ESE,2.3,-,N/A,,Mist,120,2013-12-13 16:45:00
6:15 PM,26.6,24.8,93,30.33,3.1,SSE,4.6,-,N/A,,Mist,150,2013-12-13 17:15:00
6:45 PM,26.6,24.8,93,30.33,2.8,ESE,3.5,-,N/A,,Mist,120,2013-12-13 17:45:00
7:00 PM,26,25,94,30.37,3,ESE,4.5,,,,Mist,120,2013-12-13 18:00:00
7:15 PM,26.6,24.8,93,30.33,2.5,ESE,3.5,-,N/A,,Mist,120,2013-12-13 18:15:00
7:37 PM,26.6,24.8,93,30.39,1.9,ENE,3.5,-,N/A,,Mist,70,2013-12-13 18:37:00
7:42 PM,26.6,26.6,100,30.39,0.3,East,4.6,-,N/A,Fog,Light Freezing Fog,80,2013-12-13 18:42:00
7:45 PM,26.6,24.8,93,30.33,1.9,ENE,4.6,-,N/A,,Mist,70,2013-12-13 18:45:00
8:00 PM,-9999,-9999,N/A,-9999,0.9,Variable,3.5,-,N/A,Fog,Light Freezing Fog,0,2013-12-13 19:00:00
8:15 PM,28.4,26.6,93,30.33,0.2,ENE,4.6,-,N/A,Fog,Light Freezing Fog,70,2013-12-13 19:15:00
8:45 PM,28.4,28.4,100,30.33,0.2,East,4.6,-,N/A,Fog,Light Freezing Fog,80,2013-12-13 19:45:00
9:35 PM,28.4,26.6,93,30.39,0.1,East,5.8,-,N/A,Fog,Light Freezing Fog,90,2013-12-13 20:35:00
9:45 PM,28.4,26.6,93,30.33,0.1,East,5.8,-,N/A,Fog,Light Freezing Fog,80,2013-12-13 20:45:00
10:45 PM,28.4,26.6,93,30.33,0.1,ENE,4.6,-,N/A,Fog,Light Freezing Fog,70,2013-12-13 21:45:00
11:45 PM,28.4,26.6,93,30.33,0.1,East,2.3,-,N/A,Fog,Light Freezing Fog,80,2013-12-13 22:45:00